sensor_id;sensor_type;location;lat;lon;timestamp;temperature;humidity
35559;DHT22;21661;50.794;-1.066;2023-04-09T00:01:54;8.80;99.90
35559;DHT22;21661;50.794;-1.066;2023-04-09T00:04:20;8.80;99.90
35559;DHT22;21661;50.794;-1.066;2023-04-09T00:06:48;8.80;99.90
35559;DHT22;21661;50.794;-1.066;2023-04-09T00:09:13;8.80;99.90
35559;DHT22;21661;50.794;-1.066;2023-04-09T00:11:39;8.90;99.90
35559;DHT22;21661;50.794;-1.066;2023-04-09T00:14:04;8.90;99.90
35559;DHT22;21661;50.794;-1.066;2023-04-09T00:16:30;9.00;99.90
35559;DHT22;21661;50.794;-1.066;2023-04-09T00:18:56;8.90;99.90
35559;DHT22;21661;50.794;-1.066;2023-04-09T00:21:21;8.90;99.90
35559;DHT22;21661;50.794;-1.066;2023-04-09T00:23:47;8.90;99.90
35559;DHT22;21661;50.794;-1.066;2023-04-09T00:26:13;8.90;99.90
35559;DHT22;21661;50.794;-1.066;2023-04-09T00:28:38;8.90;99.90
35559;DHT22;21661;50.794;-1.066;2023-04-09T00:31:04;8.90;99.90
35559;DHT22;21661;50.794;-1.066;2023-04-09T00:33:30;8.90;99.90
35559;DHT22;21661;50.794;-1.066;2023-04-09T00:35:55;8.90;99.90
35559;DHT22;21661;50.794;-1.066;2023-04-09T00:38:21;8.90;99.90
35559;DHT22;21661;50.794;-1.066;2023-04-09T00:40:50;8.80;99.90
35559;DHT22;21661;50.794;-1.066;2023-04-09T00:43:16;8.80;99.90
35559;DHT22;21661;50.794;-1.066;2023-04-09T00:45:46;8.80;99.90
35559;DHT22;21661;50.794;-1.066;2023-04-09T00:48:12;8.90;99.90
35559;DHT22;21661;50.794;-1.066;2023-04-09T00:50:38;8.90;99.90
35559;DHT22;21661;50.794;-1.066;2023-04-09T00:53:04;8.90;99.90
35559;DHT22;21661;50.794;-1.066;2023-04-09T00:55:30;8.80;99.90
35559;DHT22;21661;50.794;-1.066;2023-04-09T00:57:56;8.80;99.90
35559;DHT22;21661;50.794;-1.066;2023-04-09T01:00:22;8.80;99.90
35559;DHT22;21661;50.794;-1.066;2023-04-09T01:02:48;8.90;99.90
35559;DHT22;21661;50.794;-1.066;2023-04-09T01:05:15;8.90;99.90
35559;DHT22;21661;50.794;-1.066;2023-04-09T01:10:41;8.80;99.90
35559;DHT22;21661;50.794;-1.066;2023-04-09T01:13:34;8.80;99.90
35559;DHT22;21661;50.794;-1.066;2023-04-09T01:16:02;8.80;99.90
35559;DHT22;21661;50.794;-1.066;2023-04-09T01:18:55;8.90;99.90
35559;DHT22;21661;50.794;-1.066;2023-04-09T01:21:26;8.90;99.90
35559;DHT22;21661;50.794;-1.066;2023-04-09T01:29:19;8.80;99.90
35559;DHT22;21661;50.794;-1.066;2023-04-09T01:31:45;8.80;99.90
35559;DHT22;21661;50.794;-1.066;2023-04-09T01:34:13;8.80;99.90
35559;DHT22;21661;50.794;-1.066;2023-04-09T01:36:39;8.80;99.90
35559;DHT22;21661;50.794;-1.066;2023-04-09T01:39:06;8.80;99.90
35559;DHT22;21661;50.794;-1.066;2023-04-09T01:41:33;8.70;99.90
35559;DHT22;21661;50.794;-1.066;2023-04-09T01:44:00;8.70;99.90
35559;DHT22;21661;50.794;-1.066;2023-04-09T01:46:26;8.70;99.90
35559;DHT22;21661;50.794;-1.066;2023-04-09T01:48:54;8.70;99.90
35559;DHT22;21661;50.794;-1.066;2023-04-09T01:51:20;8.70;99.90
35559;DHT22;21661;50.794;-1.066;2023-04-09T01:53:45;8.70;99.90
35559;DHT22;21661;50.794;-1.066;2023-04-09T01:56:11;8.70;99.90
35559;DHT22;21661;50.794;-1.066;2023-04-09T01:58:36;8.70;99.90
35559;DHT22;21661;50.794;-1.066;2023-04-09T02:01:06;8.70;99.90
35559;DHT22;21661;50.794;-1.066;2023-04-09T02:03:43;8.80;99.90
35559;DHT22;21661;50.794;-1.066;2023-04-09T02:06:16;8.70;99.90
35559;DHT22;21661;50.794;-1.066;2023-04-09T02:08:46;8.70;99.90
35559;DHT22;21661;50.794;-1.066;2023-04-09T02:11:13;8.70;99.90
35559;DHT22;21661;50.794;-1.066;2023-04-09T02:13:40;8.70;99.90
35559;DHT22;21661;50.794;-1.066;2023-04-09T02:16:08;8.70;99.90
35559;DHT22;21661;50.794;-1.066;2023-04-09T02:18:35;8.70;99.90
35559;DHT22;21661;50.794;-1.066;2023-04-09T02:21:02;8.80;99.90
35559;DHT22;21661;50.794;-1.066;2023-04-09T02:23:29;8.70;99.90
35559;DHT22;21661;50.794;-1.066;2023-04-09T02:25:56;8.70;99.90
35559;DHT22;21661;50.794;-1.066;2023-04-09T02:28:22;8.70;99.90
35559;DHT22;21661;50.794;-1.066;2023-04-09T02:30:47;8.60;99.90
35559;DHT22;21661;50.794;-1.066;2023-04-09T02:33:13;8.60;99.90
35559;DHT22;21661;50.794;-1.066;2023-04-09T02:35:39;8.60;99.90
35559;DHT22;21661;50.794;-1.066;2023-04-09T02:38:04;8.60;99.90
35559;DHT22;21661;50.794;-1.066;2023-04-09T02:40:30;8.60;99.90
35559;DHT22;21661;50.794;-1.066;2023-04-09T02:42:56;8.60;99.90
35559;DHT22;21661;50.794;-1.066;2023-04-09T02:45:22;8.60;99.90
35559;DHT22;21661;50.794;-1.066;2023-04-09T02:47:47;8.60;99.90
35559;DHT22;21661;50.794;-1.066;2023-04-09T02:50:13;8.50;99.90
35559;DHT22;21661;50.794;-1.066;2023-04-09T02:52:38;8.50;99.90
35559;DHT22;21661;50.794;-1.066;2023-04-09T02:55:04;8.50;99.90
35559;DHT22;21661;50.794;-1.066;2023-04-09T02:57:30;8.50;99.90
35559;DHT22;21661;50.794;-1.066;2023-04-09T02:59:57;8.40;99.90
35559;DHT22;21661;50.794;-1.066;2023-04-09T03:02:23;8.40;99.90
35559;DHT22;21661;50.794;-1.066;2023-04-09T03:04:49;8.50;99.90
35559;DHT22;21661;50.794;-1.066;2023-04-09T03:07:15;8.40;99.90
35559;DHT22;21661;50.794;-1.066;2023-04-09T03:09:40;8.40;99.90
35559;DHT22;21661;50.794;-1.066;2023-04-09T03:12:06;8.40;99.90
35559;DHT22;21661;50.794;-1.066;2023-04-09T03:14:31;8.40;99.90
35559;DHT22;21661;50.794;-1.066;2023-04-09T03:16:57;8.40;99.90
35559;DHT22;21661;50.794;-1.066;2023-04-09T03:19:22;8.40;99.90
35559;DHT22;21661;50.794;-1.066;2023-04-09T03:21:48;8.40;99.90
35559;DHT22;21661;50.794;-1.066;2023-04-09T03:24:15;8.40;99.90
35559;DHT22;21661;50.794;-1.066;2023-04-09T03:26:41;8.30;99.90
35559;DHT22;21661;50.794;-1.066;2023-04-09T03:29:06;8.30;99.90
35559;DHT22;21661;50.794;-1.066;2023-04-09T03:31:32;8.30;99.90
35559;DHT22;21661;50.794;-1.066;2023-04-09T03:33:58;8.30;99.90
35559;DHT22;21661;50.794;-1.066;2023-04-09T03:36:23;8.30;99.90
35559;DHT22;21661;50.794;-1.066;2023-04-09T03:38:49;8.30;99.90
35559;DHT22;21661;50.794;-1.066;2023-04-09T03:41:15;8.40;99.90
35559;DHT22;21661;50.794;-1.066;2023-04-09T03:43:41;8.40;99.90
35559;DHT22;21661;50.794;-1.066;2023-04-09T03:46:17;8.40;99.90
35559;DHT22;21661;50.794;-1.066;2023-04-09T03:48:43;8.40;99.90
35559;DHT22;21661;50.794;-1.066;2023-04-09T03:51:13;8.40;99.90
35559;DHT22;21661;50.794;-1.066;2023-04-09T03:53:39;8.40;99.90
35559;DHT22;21661;50.794;-1.066;2023-04-09T03:56:06;8.40;99.90
35559;DHT22;21661;50.794;-1.066;2023-04-09T03:58:32;8.40;99.90
35559;DHT22;21661;50.794;-1.066;2023-04-09T04:00:57;8.50;99.90
35559;DHT22;21661;50.794;-1.066;2023-04-09T04:03:23;8.50;99.90
35559;DHT22;21661;50.794;-1.066;2023-04-09T04:05:49;8.50;99.90
35559;DHT22;21661;50.794;-1.066;2023-04-09T04:08:14;8.50;99.90
35559;DHT22;21661;50.794;-1.066;2023-04-09T04:10:40;8.50;99.90
35559;DHT22;21661;50.794;-1.066;2023-04-09T04:13:06;8.50;99.90
35559;DHT22;21661;50.794;-1.066;2023-04-09T04:15:33;8.50;99.90
35559;DHT22;21661;50.794;-1.066;2023-04-09T04:17:59;8.50;99.90
35559;DHT22;21661;50.794;-1.066;2023-04-09T04:20:24;8.50;99.90
35559;DHT22;21661;50.794;-1.066;2023-04-09T04:22:50;8.50;99.90
35559;DHT22;21661;50.794;-1.066;2023-04-09T04:25:16;8.50;99.90
35559;DHT22;21661;50.794;-1.066;2023-04-09T04:27:42;8.50;99.90
35559;DHT22;21661;50.794;-1.066;2023-04-09T04:30:08;8.50;99.90
35559;DHT22;21661;50.794;-1.066;2023-04-09T04:32:33;8.50;99.90
35559;DHT22;21661;50.794;-1.066;2023-04-09T04:34:59;8.50;99.90
35559;DHT22;21661;50.794;-1.066;2023-04-09T04:37:25;8.50;99.90
35559;DHT22;21661;50.794;-1.066;2023-04-09T04:39:50;8.50;99.90
35559;DHT22;21661;50.794;-1.066;2023-04-09T04:42:16;8.60;99.90
35559;DHT22;21661;50.794;-1.066;2023-04-09T04:44:43;8.50;99.90
35559;DHT22;21661;50.794;-1.066;2023-04-09T04:47:08;8.50;99.90
35559;DHT22;21661;50.794;-1.066;2023-04-09T04:49:34;8.50;99.90
35559;DHT22;21661;50.794;-1.066;2023-04-09T04:51:59;8.40;99.90
35559;DHT22;21661;50.794;-1.066;2023-04-09T04:54:25;8.50;99.90
35559;DHT22;21661;50.794;-1.066;2023-04-09T04:56:51;8.50;99.90
35559;DHT22;21661;50.794;-1.066;2023-04-09T04:59:16;8.40;99.90
35559;DHT22;21661;50.794;-1.066;2023-04-09T05:01:42;8.40;99.90
35559;DHT22;21661;50.794;-1.066;2023-04-09T05:04:08;8.40;99.90
35559;DHT22;21661;50.794;-1.066;2023-04-09T05:06:33;8.40;99.90
35559;DHT22;21661;50.794;-1.066;2023-04-09T05:08:59;8.40;99.90
35559;DHT22;21661;50.794;-1.066;2023-04-09T05:11:26;8.40;99.90
35559;DHT22;21661;50.794;-1.066;2023-04-09T05:13:52;8.40;99.90
35559;DHT22;21661;50.794;-1.066;2023-04-09T05:16:18;8.40;99.90
35559;DHT22;21661;50.794;-1.066;2023-04-09T05:18:44;8.30;99.90
35559;DHT22;21661;50.794;-1.066;2023-04-09T05:21:10;8.30;99.90
35559;DHT22;21661;50.794;-1.066;2023-04-09T05:23:36;8.30;99.90
35559;DHT22;21661;50.794;-1.066;2023-04-09T05:26:01;8.20;99.90
35559;DHT22;21661;50.794;-1.066;2023-04-09T05:28:27;8.30;99.90
35559;DHT22;21661;50.794;-1.066;2023-04-09T05:30:53;8.30;99.90
35559;DHT22;21661;50.794;-1.066;2023-04-09T05:33:18;8.30;99.90
35559;DHT22;21661;50.794;-1.066;2023-04-09T05:35:44;8.30;99.90
35559;DHT22;21661;50.794;-1.066;2023-04-09T05:38:10;8.30;99.90
35559;DHT22;21661;50.794;-1.066;2023-04-09T05:40:35;8.30;99.90
35559;DHT22;21661;50.794;-1.066;2023-04-09T05:43:01;8.40;99.90
35559;DHT22;21661;50.794;-1.066;2023-04-09T05:45:27;8.30;99.90
35559;DHT22;21661;50.794;-1.066;2023-04-09T05:47:53;8.40;99.90
35559;DHT22;21661;50.794;-1.066;2023-04-09T05:50:19;8.40;99.90
35559;DHT22;21661;50.794;-1.066;2023-04-09T05:52:45;8.50;99.90
35559;DHT22;21661;50.794;-1.066;2023-04-09T05:55:10;8.50;99.90
35559;DHT22;21661;50.794;-1.066;2023-04-09T05:57:36;8.40;99.90
35559;DHT22;21661;50.794;-1.066;2023-04-09T06:00:02;8.40;99.90
35559;DHT22;21661;50.794;-1.066;2023-04-09T06:02:28;8.50;99.90
35559;DHT22;21661;50.794;-1.066;2023-04-09T06:04:53;8.50;99.90
35559;DHT22;21661;50.794;-1.066;2023-04-09T06:07:19;8.50;99.90
35559;DHT22;21661;50.794;-1.066;2023-04-09T06:09:45;8.50;99.90
35559;DHT22;21661;50.794;-1.066;2023-04-09T06:12:11;8.50;99.90
35559;DHT22;21661;50.794;-1.066;2023-04-09T06:14:38;8.50;99.90
35559;DHT22;21661;50.794;-1.066;2023-04-09T06:17:03;8.60;99.90
35559;DHT22;21661;50.794;-1.066;2023-04-09T06:19:29;8.60;99.90
35559;DHT22;21661;50.794;-1.066;2023-04-09T06:21:55;8.60;99.90
35559;DHT22;21661;50.794;-1.066;2023-04-09T06:24:20;8.60;99.90
35559;DHT22;21661;50.794;-1.066;2023-04-09T06:26:46;8.60;99.90
35559;DHT22;21661;50.794;-1.066;2023-04-09T06:29:12;8.70;99.90
35559;DHT22;21661;50.794;-1.066;2023-04-09T06:31:37;8.70;99.90
35559;DHT22;21661;50.794;-1.066;2023-04-09T06:34:03;8.80;99.90
35559;DHT22;21661;50.794;-1.066;2023-04-09T06:36:28;8.80;99.90
35559;DHT22;21661;50.794;-1.066;2023-04-09T06:38:55;8.80;99.90
35559;DHT22;21661;50.794;-1.066;2023-04-09T06:41:24;9.00;99.90
35559;DHT22;21661;50.794;-1.066;2023-04-09T06:43:51;9.00;99.90
35559;DHT22;21661;50.794;-1.066;2023-04-09T06:46:17;9.00;99.90
35559;DHT22;21661;50.794;-1.066;2023-04-09T06:48:45;9.10;99.90
35559;DHT22;21661;50.794;-1.066;2023-04-09T06:51:11;9.10;99.90
35559;DHT22;21661;50.794;-1.066;2023-04-09T06:53:39;9.30;99.90
35559;DHT22;21661;50.794;-1.066;2023-04-09T06:56:05;9.30;99.90
35559;DHT22;21661;50.794;-1.066;2023-04-09T06:58:31;9.30;99.90
35559;DHT22;21661;50.794;-1.066;2023-04-09T07:00:57;9.30;99.90
35559;DHT22;21661;50.794;-1.066;2023-04-09T07:03:23;9.30;99.90
35559;DHT22;21661;50.794;-1.066;2023-04-09T07:05:49;9.40;99.90
35559;DHT22;21661;50.794;-1.066;2023-04-09T07:08:14;9.50;99.90
35559;DHT22;21661;50.794;-1.066;2023-04-09T07:10:40;9.60;99.90
35559;DHT22;21661;50.794;-1.066;2023-04-09T07:13:06;9.60;99.90
35559;DHT22;21661;50.794;-1.066;2023-04-09T07:15:32;9.60;99.90
35559;DHT22;21661;50.794;-1.066;2023-04-09T07:17:57;9.70;99.90
35559;DHT22;21661;50.794;-1.066;2023-04-09T07:20:23;9.80;99.90
35559;DHT22;21661;50.794;-1.066;2023-04-09T07:22:48;9.90;99.90
35559;DHT22;21661;50.794;-1.066;2023-04-09T07:25:15;10.00;99.90
35559;DHT22;21661;50.794;-1.066;2023-04-09T07:27:41;10.10;99.90
35559;DHT22;21661;50.794;-1.066;2023-04-09T07:30:07;10.30;99.90
35559;DHT22;21661;50.794;-1.066;2023-04-09T07:32:35;10.50;99.90
35559;DHT22;21661;50.794;-1.066;2023-04-09T07:35:02;10.60;99.90
35559;DHT22;21661;50.794;-1.066;2023-04-09T07:37:28;10.60;99.90
35559;DHT22;21661;50.794;-1.066;2023-04-09T07:39:54;10.50;99.90
35559;DHT22;21661;50.794;-1.066;2023-04-09T07:42:21;10.40;99.90
35559;DHT22;21661;50.794;-1.066;2023-04-09T07:44:47;10.40;99.90
35559;DHT22;21661;50.794;-1.066;2023-04-09T07:47:13;10.40;99.90
35559;DHT22;21661;50.794;-1.066;2023-04-09T07:49:38;10.40;99.90
35559;DHT22;21661;50.794;-1.066;2023-04-09T07:52:04;10.40;99.90
35559;DHT22;21661;50.794;-1.066;2023-04-09T07:54:31;10.50;99.90
35559;DHT22;21661;50.794;-1.066;2023-04-09T07:56:57;10.60;99.90
35559;DHT22;21661;50.794;-1.066;2023-04-09T07:59:23;10.60;99.90
35559;DHT22;21661;50.794;-1.066;2023-04-09T08:01:49;10.60;99.90
35559;DHT22;21661;50.794;-1.066;2023-04-09T08:04:15;10.60;99.90
35559;DHT22;21661;50.794;-1.066;2023-04-09T08:06:41;10.60;99.90
35559;DHT22;21661;50.794;-1.066;2023-04-09T08:09:06;10.60;99.90
35559;DHT22;21661;50.794;-1.066;2023-04-09T08:11:32;10.70;99.90
35559;DHT22;21661;50.794;-1.066;2023-04-09T08:13:58;10.70;99.90
35559;DHT22;21661;50.794;-1.066;2023-04-09T08:16:27;10.80;99.90
35559;DHT22;21661;50.794;-1.066;2023-04-09T08:18:54;10.80;99.90
35559;DHT22;21661;50.794;-1.066;2023-04-09T08:21:20;10.80;99.90
35559;DHT22;21661;50.794;-1.066;2023-04-09T08:23:46;10.70;99.90
35559;DHT22;21661;50.794;-1.066;2023-04-09T08:26:12;10.80;99.90
35559;DHT22;21661;50.794;-1.066;2023-04-09T08:28:37;10.90;99.90
35559;DHT22;21661;50.794;-1.066;2023-04-09T08:31:03;10.90;99.90
35559;DHT22;21661;50.794;-1.066;2023-04-09T08:33:28;10.90;99.90
35559;DHT22;21661;50.794;-1.066;2023-04-09T08:35:55;10.90;99.90
35559;DHT22;21661;50.794;-1.066;2023-04-09T08:38:20;11.00;99.90
35559;DHT22;21661;50.794;-1.066;2023-04-09T08:40:46;11.10;99.90
35559;DHT22;21661;50.794;-1.066;2023-04-09T08:43:14;11.20;99.90
35559;DHT22;21661;50.794;-1.066;2023-04-09T08:45:43;11.30;99.90
35559;DHT22;21661;50.794;-1.066;2023-04-09T08:48:09;11.30;99.90
35559;DHT22;21661;50.794;-1.066;2023-04-09T08:50:37;11.40;99.90
35559;DHT22;21661;50.794;-1.066;2023-04-09T08:53:04;11.40;99.90
35559;DHT22;21661;50.794;-1.066;2023-04-09T08:55:30;11.50;99.90
35559;DHT22;21661;50.794;-1.066;2023-04-09T08:57:56;11.50;99.90
35559;DHT22;21661;50.794;-1.066;2023-04-09T09:00:22;11.50;99.90
35559;DHT22;21661;50.794;-1.066;2023-04-09T09:03:11;11.50;99.90
35559;DHT22;21661;50.794;-1.066;2023-04-09T09:05:40;11.50;99.90
35559;DHT22;21661;50.794;-1.066;2023-04-09T09:08:10;11.50;99.90
35559;DHT22;21661;50.794;-1.066;2023-04-09T09:10:44;11.50;99.90
35559;DHT22;21661;50.794;-1.066;2023-04-09T09:13:20;11.50;99.90
35559;DHT22;21661;50.794;-1.066;2023-04-09T09:15:47;11.60;99.90
35559;DHT22;21661;50.794;-1.066;2023-04-09T09:18:16;11.60;99.90
35559;DHT22;21661;50.794;-1.066;2023-04-09T09:20:41;11.60;99.90
35559;DHT22;21661;50.794;-1.066;2023-04-09T09:23:07;11.60;99.90
35559;DHT22;21661;50.794;-1.066;2023-04-09T09:25:38;11.70;99.90
35559;DHT22;21661;50.794;-1.066;2023-04-09T09:28:11;11.70;99.90
35559;DHT22;21661;50.794;-1.066;2023-04-09T09:30:38;11.80;99.90
35559;DHT22;21661;50.794;-1.066;2023-04-09T09:33:10;11.80;99.90
35559;DHT22;21661;50.794;-1.066;2023-04-09T09:35:49;11.90;99.90
35559;DHT22;21661;50.794;-1.066;2023-04-09T09:38:16;11.80;99.90
35559;DHT22;21661;50.794;-1.066;2023-04-09T09:40:43;11.80;99.90
35559;DHT22;21661;50.794;-1.066;2023-04-09T09:43:09;11.90;99.90
35559;DHT22;21661;50.794;-1.066;2023-04-09T09:45:39;11.80;99.90
35559;DHT22;21661;50.794;-1.066;2023-04-09T09:48:05;11.80;99.90
35559;DHT22;21661;50.794;-1.066;2023-04-09T09:50:30;11.90;99.90
35559;DHT22;21661;50.794;-1.066;2023-04-09T09:53:04;12.00;99.90
35559;DHT22;21661;50.794;-1.066;2023-04-09T09:55:31;12.10;99.90
35559;DHT22;21661;50.794;-1.066;2023-04-09T09:58:00;12.20;99.90
35559;DHT22;21661;50.794;-1.066;2023-04-09T10:00:28;12.20;99.90
35559;DHT22;21661;50.794;-1.066;2023-04-09T10:02:57;12.10;99.90
35559;DHT22;21661;50.794;-1.066;2023-04-09T10:05:23;12.10;99.90
35559;DHT22;21661;50.794;-1.066;2023-04-09T10:07:54;12.00;99.90
35559;DHT22;21661;50.794;-1.066;2023-04-09T10:10:22;12.10;99.90
35559;DHT22;21661;50.794;-1.066;2023-04-09T10:12:49;12.10;99.90
35559;DHT22;21661;50.794;-1.066;2023-04-09T10:15:19;12.20;99.90
35559;DHT22;21661;50.794;-1.066;2023-04-09T10:17:45;12.10;99.90
35559;DHT22;21661;50.794;-1.066;2023-04-09T10:20:23;12.20;99.90
35559;DHT22;21661;50.794;-1.066;2023-04-09T10:22:51;12.30;99.90
35559;DHT22;21661;50.794;-1.066;2023-04-09T10:25:18;12.40;99.90
35559;DHT22;21661;50.794;-1.066;2023-04-09T10:27:43;12.40;99.90
35559;DHT22;21661;50.794;-1.066;2023-04-09T10:30:34;12.50;99.90
35559;DHT22;21661;50.794;-1.066;2023-04-09T10:35:34;12.60;99.90
35559;DHT22;21661;50.794;-1.066;2023-04-09T10:38:00;12.70;99.90
35559;DHT22;21661;50.794;-1.066;2023-04-09T10:40:27;12.60;99.90
35559;DHT22;21661;50.794;-1.066;2023-04-09T10:42:55;12.40;99.90
35559;DHT22;21661;50.794;-1.066;2023-04-09T10:45:21;12.40;99.90
35559;DHT22;21661;50.794;-1.066;2023-04-09T10:47:49;12.40;99.90
35559;DHT22;21661;50.794;-1.066;2023-04-09T10:50:26;12.50;99.90
35559;DHT22;21661;50.794;-1.066;2023-04-09T10:52:56;12.40;99.90
35559;DHT22;21661;50.794;-1.066;2023-04-09T10:55:36;12.20;99.90
35559;DHT22;21661;50.794;-1.066;2023-04-09T10:58:07;12.10;99.90
35559;DHT22;21661;50.794;-1.066;2023-04-09T11:00:36;12.10;99.90
35559;DHT22;21661;50.794;-1.066;2023-04-09T11:05:37;12.00;99.90
35559;DHT22;21661;50.794;-1.066;2023-04-09T11:08:11;12.00;99.90
35559;DHT22;21661;50.794;-1.066;2023-04-09T11:10:39;12.10;99.90
35559;DHT22;21661;50.794;-1.066;2023-04-09T11:13:05;12.10;99.90
35559;DHT22;21661;50.794;-1.066;2023-04-09T11:15:34;12.10;99.90
35559;DHT22;21661;50.794;-1.066;2023-04-09T11:18:00;12.20;99.90
35559;DHT22;21661;50.794;-1.066;2023-04-09T11:20:26;12.30;99.90
35559;DHT22;21661;50.794;-1.066;2023-04-09T11:22:54;12.30;99.90
35559;DHT22;21661;50.794;-1.066;2023-04-09T11:25:23;12.40;99.90
35559;DHT22;21661;50.794;-1.066;2023-04-09T11:27:49;12.20;99.90
35559;DHT22;21661;50.794;-1.066;2023-04-09T11:30:15;12.30;99.90
35559;DHT22;21661;50.794;-1.066;2023-04-09T11:32:41;12.20;99.90
35559;DHT22;21661;50.794;-1.066;2023-04-09T11:35:11;12.20;99.90
35559;DHT22;21661;50.794;-1.066;2023-04-09T11:37:38;12.20;99.90
35559;DHT22;21661;50.794;-1.066;2023-04-09T11:40:03;12.10;99.90
35559;DHT22;21661;50.794;-1.066;2023-04-09T11:42:33;12.10;99.90
35559;DHT22;21661;50.794;-1.066;2023-04-09T11:44:59;12.20;99.90
35559;DHT22;21661;50.794;-1.066;2023-04-09T11:47:26;12.30;99.90
35559;DHT22;21661;50.794;-1.066;2023-04-09T11:49:52;12.20;99.90
35559;DHT22;21661;50.794;-1.066;2023-04-09T11:52:18;12.30;99.90
35559;DHT22;21661;50.794;-1.066;2023-04-09T11:54:49;12.30;99.90
35559;DHT22;21661;50.794;-1.066;2023-04-09T11:57:16;12.50;99.90
35559;DHT22;21661;50.794;-1.066;2023-04-09T11:59:41;12.50;99.90
35559;DHT22;21661;50.794;-1.066;2023-04-09T12:02:07;12.60;99.90
35559;DHT22;21661;50.794;-1.066;2023-04-09T12:04:33;12.60;99.90
35559;DHT22;21661;50.794;-1.066;2023-04-09T12:06:59;12.40;99.90
35559;DHT22;21661;50.794;-1.066;2023-04-09T12:09:25;12.50;99.90
35559;DHT22;21661;50.794;-1.066;2023-04-09T12:11:50;12.50;99.90
35559;DHT22;21661;50.794;-1.066;2023-04-09T12:14:17;12.40;99.90
35559;DHT22;21661;50.794;-1.066;2023-04-09T12:16:43;12.40;99.90
35559;DHT22;21661;50.794;-1.066;2023-04-09T12:19:12;12.30;99.90
35559;DHT22;21661;50.794;-1.066;2023-04-09T12:21:54;12.30;99.90
35559;DHT22;21661;50.794;-1.066;2023-04-09T12:24:23;12.40;99.90
35559;DHT22;21661;50.794;-1.066;2023-04-09T12:26:49;12.50;99.90
35559;DHT22;21661;50.794;-1.066;2023-04-09T12:29:17;12.70;99.90
35559;DHT22;21661;50.794;-1.066;2023-04-09T12:31:44;12.90;99.90
35559;DHT22;21661;50.794;-1.066;2023-04-09T12:34:10;12.80;99.90
35559;DHT22;21661;50.794;-1.066;2023-04-09T12:36:37;12.70;99.90
35559;DHT22;21661;50.794;-1.066;2023-04-09T12:39:03;12.60;99.90
35559;DHT22;21661;50.794;-1.066;2023-04-09T12:41:29;12.50;99.90
35559;DHT22;21661;50.794;-1.066;2023-04-09T12:43:55;12.60;99.90
35559;DHT22;21661;50.794;-1.066;2023-04-09T12:46:20;12.80;99.90
35559;DHT22;21661;50.794;-1.066;2023-04-09T12:48:46;12.80;99.90
35559;DHT22;21661;50.794;-1.066;2023-04-09T12:51:12;13.00;99.90
35559;DHT22;21661;50.794;-1.066;2023-04-09T12:53:38;13.10;99.90
35559;DHT22;21661;50.794;-1.066;2023-04-09T12:56:04;13.10;99.90
35559;DHT22;21661;50.794;-1.066;2023-04-09T12:58:30;12.90;99.90
35559;DHT22;21661;50.794;-1.066;2023-04-09T13:00:56;12.70;99.90
35559;DHT22;21661;50.794;-1.066;2023-04-09T13:03:25;12.90;99.90
35559;DHT22;21661;50.794;-1.066;2023-04-09T13:05:51;13.00;99.90
35559;DHT22;21661;50.794;-1.066;2023-04-09T13:08:17;12.80;99.90
35559;DHT22;21661;50.794;-1.066;2023-04-09T13:10:43;12.80;99.90
35559;DHT22;21661;50.794;-1.066;2023-04-09T13:13:09;12.70;99.90
35559;DHT22;21661;50.794;-1.066;2023-04-09T13:15:41;12.60;99.90
35559;DHT22;21661;50.794;-1.066;2023-04-09T13:18:12;12.60;99.90
35559;DHT22;21661;50.794;-1.066;2023-04-09T13:20:38;12.70;99.90
35559;DHT22;21661;50.794;-1.066;2023-04-09T13:23:04;12.70;99.90
35559;DHT22;21661;50.794;-1.066;2023-04-09T13:25:30;12.70;99.90
35559;DHT22;21661;50.794;-1.066;2023-04-09T13:27:56;12.60;99.90
35559;DHT22;21661;50.794;-1.066;2023-04-09T13:30:22;12.50;99.90
35559;DHT22;21661;50.794;-1.066;2023-04-09T13:32:47;12.40;99.90
35559;DHT22;21661;50.794;-1.066;2023-04-09T13:35:13;12.50;99.90
35559;DHT22;21661;50.794;-1.066;2023-04-09T13:37:38;12.50;99.90
35559;DHT22;21661;50.794;-1.066;2023-04-09T13:40:05;12.60;99.90
35559;DHT22;21661;50.794;-1.066;2023-04-09T13:42:33;12.60;99.90
35559;DHT22;21661;50.794;-1.066;2023-04-09T13:44:58;12.50;99.90
35559;DHT22;21661;50.794;-1.066;2023-04-09T13:47:24;12.70;99.90
35559;DHT22;21661;50.794;-1.066;2023-04-09T13:49:50;12.70;99.90
35559;DHT22;21661;50.794;-1.066;2023-04-09T13:52:18;12.70;99.90
35559;DHT22;21661;50.794;-1.066;2023-04-09T13:54:44;12.50;99.90
35559;DHT22;21661;50.794;-1.066;2023-04-09T13:57:09;12.40;99.90
35559;DHT22;21661;50.794;-1.066;2023-04-09T13:59:35;12.40;99.90
35559;DHT22;21661;50.794;-1.066;2023-04-09T14:02:02;12.30;99.90
35559;DHT22;21661;50.794;-1.066;2023-04-09T14:04:28;12.10;99.90
35559;DHT22;21661;50.794;-1.066;2023-04-09T14:06:53;12.30;99.90
35559;DHT22;21661;50.794;-1.066;2023-04-09T14:09:19;12.30;99.90
35559;DHT22;21661;50.794;-1.066;2023-04-09T14:11:45;12.30;99.90
35559;DHT22;21661;50.794;-1.066;2023-04-09T14:14:11;12.50;99.90
35559;DHT22;21661;50.794;-1.066;2023-04-09T14:16:36;12.60;99.90
35559;DHT22;21661;50.794;-1.066;2023-04-09T14:19:02;12.50;99.90
35559;DHT22;21661;50.794;-1.066;2023-04-09T14:21:28;12.60;99.90
35559;DHT22;21661;50.794;-1.066;2023-04-09T14:23:53;12.60;99.90
35559;DHT22;21661;50.794;-1.066;2023-04-09T14:26:19;12.80;99.90
35559;DHT22;21661;50.794;-1.066;2023-04-09T14:28:45;12.70;99.90
35559;DHT22;21661;50.794;-1.066;2023-04-09T14:31:12;12.80;99.90
35559;DHT22;21661;50.794;-1.066;2023-04-09T14:33:39;12.80;99.90
35559;DHT22;21661;50.794;-1.066;2023-04-09T14:36:05;12.90;99.90
35559;DHT22;21661;50.794;-1.066;2023-04-09T14:38:32;12.80;99.90
35559;DHT22;21661;50.794;-1.066;2023-04-09T14:40:57;12.80;99.90
35559;DHT22;21661;50.794;-1.066;2023-04-09T14:43:23;12.80;99.90
35559;DHT22;21661;50.794;-1.066;2023-04-09T14:45:49;12.70;99.90
35559;DHT22;21661;50.794;-1.066;2023-04-09T14:48:16;12.60;99.90
35559;DHT22;21661;50.794;-1.066;2023-04-09T14:50:42;12.50;99.90
35559;DHT22;21661;50.794;-1.066;2023-04-09T14:53:08;12.40;99.90
35559;DHT22;21661;50.794;-1.066;2023-04-09T14:55:34;12.30;99.90
35559;DHT22;21661;50.794;-1.066;2023-04-09T14:58:00;12.30;99.90
35559;DHT22;21661;50.794;-1.066;2023-04-09T15:00:29;12.20;99.90
35559;DHT22;21661;50.794;-1.066;2023-04-09T15:02:55;12.20;99.90
35559;DHT22;21661;50.794;-1.066;2023-04-09T15:05:21;12.10;99.90
35559;DHT22;21661;50.794;-1.066;2023-04-09T15:07:47;12.20;99.90
35559;DHT22;21661;50.794;-1.066;2023-04-09T15:10:13;12.10;99.90
35559;DHT22;21661;50.794;-1.066;2023-04-09T15:12:39;12.10;99.90
35559;DHT22;21661;50.794;-1.066;2023-04-09T15:15:06;12.00;99.90
35559;DHT22;21661;50.794;-1.066;2023-04-09T15:17:32;12.00;99.90
35559;DHT22;21661;50.794;-1.066;2023-04-09T15:19:57;12.00;99.90
35559;DHT22;21661;50.794;-1.066;2023-04-09T15:22:23;11.90;99.90
35559;DHT22;21661;50.794;-1.066;2023-04-09T15:24:49;11.90;99.90
35559;DHT22;21661;50.794;-1.066;2023-04-09T15:27:16;11.90;99.90
35559;DHT22;21661;50.794;-1.066;2023-04-09T15:29:41;11.90;99.90
35559;DHT22;21661;50.794;-1.066;2023-04-09T15:32:07;12.00;99.90
35559;DHT22;21661;50.794;-1.066;2023-04-09T15:34:33;12.10;99.90